Stena Germanica — SKPZ — position and weather

sailwx.info

Track history (hours):
 
Tides and Currents Weather Stations Pressure Air Temp Water Temp Dewpoint Dewpoint Depression Visibility Wind Speed Wind Dir Waves Ship Positions

Stena Germanica

Last reported at 2016-May-03 11:33 UTC. Time now 2016-May-03 12:30 UTC.
Position N 55°29' E 017°08'.

Length 176 m; draft 6.7 m.

Type: Ship (hazmat cat A). MMSI: 265292000.

Date/timePositionNaut miles runAvg speedWind from/ knotsBaromVisibWave heightAir tempDewpointWater temp
2016-May-03 11:33N 55°29' E 017°08'3416.7
2016-May-03 09:31N 55°48' E 016°18'3015.2
2016-May-03 07:33N 56°05' E 015°34'3 0.9
2016-May-03 04:14N 56°03' E 015°37'1414.4
2016-May-03 03:16N 55°55' E 015°58'1014.7
2016-May-03 02:33N 55°49' E 016°14'1614.4
2016-May-03 01:28N 55°40' E 016°37'1314.3
2016-May-03 00:33N 55°33' E 016°56'1514.4
2016-May-02 23:31N 55°25' E 017°18'1514.9
2016-May-02 22:33N 55°17' E 017°39'1515.0
2016-May-02 21:33N 55°09' E 018°01'1515.1
2016-May-02 20:33N 55°01' E 018°23'1514.9
2016-May-02 19:33N 54°51' E 018°42'1414.4
2016-May-02 18:33N 54°39' E 018°57'1312.9
2016-May-02 17:33N 54°32' E 018°38'5 4.5
2016-May-02 16:31N 54°33' E 018°30'0 0.0
2016-May-02 15:31N 54°33' E 018°30'0 0.0
2016-May-02 14:31N 54°33' E 018°30'0 0.0
2016-May-02 13:31N 54°33' E 018°30'0 0.0
2016-May-02 12:31N 54°33' E 018°30'0 0.0
2016-May-02 11:31N 54°33' E 018°30'0 0.0
2016-May-02 10:31N 54°33' E 018°30'0 0.0
2016-May-02 09:31N 54°33' E 018°30'0 0.0
2016-May-02 08:31N 54°33' E 018°30'0 0.0
2016-May-02 07:31N 54°33' E 018°30'2 2.5
2016-May-02 06:33N 54°32' E 018°34'1211.6
2016-May-02 05:33N 54°36' E 018°53'1212.5
2016-May-02 04:33N 54°48' E 018°47'1414.4
2016-May-02 03:33N 54°58' E 018°30'1514.7
2016-May-02 02:33N 55°07' E 018°09'1514.7
2016-May-02 01:33N 55°14' E 017°47'1514.6
2016-May-02 00:33N 55°22' E 017°25'1614.6
2016-May-01 23:28N 55°31' E 017°02'3015.0
2016-May-01 21:28N 55°47' E 016°17'1415.1
2016-May-01 20:32N 55°55' E 015°56'1515.2
2016-May-01 19:33N 56°04' E 015°34'2 0.9
2016-May-01 17:27N 56°06' E 015°34'1514.7
2016-May-01 16:25N 55°56' E 015°56'1415.8
2016-May-01 15:32N 55°49' E 016°16'6516.2
2016-May-01 11:30N 55°12' E 017°52'1616.4
2016-May-01 10:33N 55°04' E 018°15'1616.3
2016-May-01 09:33N 54°54' E 018°38'1616.4
2016-May-01 08:33N 54°42' E 018°56'1313.3
2016-May-01 07:34N 54°32' E 018°41'6 6.5
2016-May-01 06:33N 54°33' E 018°30'0 0.0
2016-May-01 05:33N 54°33' E 018°30'7 7.0
2016-May-01 04:33N 54°32' E 018°42'1312.9
2016-May-01 03:33N 54°44' E 018°52'1717.2
2016-May-01 02:34N 54°57' E 018°33'1717.2
2016-May-01 01:34N 55°07' E 018°08'1717.3
2016-May-01 00:33N 55°16' E 017°42'1717.3
2016-Apr-30 23:33N 55°26' E 017°17'1717.3
2016-Apr-30 22:33N 55°35' E 016°51'1717.3
2016-Apr-30 21:33N 55°45' E 016°26'1717.3
2016-Apr-30 20:33N 55°54' E 016°00'1716.7
2016-Apr-30 19:33N 56°03' E 015°35'6 2.4
2016-Apr-30 17:14N 56°09' E 015°37'812.2
2016-Apr-30 16:34N 56°01' E 015°41'1616.0
2016-Apr-30 15:33N 55°53' E 016°06'1716.8
2016-Apr-30 14:33N 55°43' E 016°31'3316.7
2016-Apr-30 12:33N 55°25' E 017°20'1717.2
2016-Apr-30 11:33N 55°15' E 017°44'1717.0
2016-Apr-30 10:33N 55°06' E 018°09'1717.0
2016-Apr-30 09:33N 54°57' E 018°35'1616.3
2016-Apr-30 08:34N 54°44' E 018°53'1313.3
2016-Apr-30 07:34N 54°32' E 018°46'9 8.6
2016-Apr-30 06:31N 54°33' E 018°30'0 0.0
2016-Apr-30 05:34N 54°33' E 018°30'6 6.4
2016-Apr-30 04:34N 54°32' E 018°41'1212.2
2016-Apr-30 03:33N 54°41' E 018°55'1413.8
2016-Apr-30 02:33N 54°52' E 018°40'1312.7
2016-Apr-30 01:33N 55°00' E 018°23'1312.7
2016-Apr-30 00:33N 55°07' E 018°05'1312.9
2016-Apr-29 23:33N 55°14' E 017°46'2914.3
2016-Apr-29 21:32N 55°30' E 017°03'1815.2
2016-Apr-29 20:22N 55°40' E 016°37'1315.1
2016-Apr-29 19:30N 55°47' E 016°18'1815.2
2016-Apr-29 18:21N 55°57' E 015°52'1215.0
2016-Apr-29 17:33N 56°04' E 015°34'104 5.8
2016-Apr-28 23:31N 55°07' E 018°08'1515.6
2016-Apr-28 22:33N 54°58' E 018°30'1615.8
2016-Apr-28 21:33N 54°47' E 018°49'1413.7
2016-Apr-28 20:33N 54°33' E 018°51'1211.8
2016-Apr-28 19:33N 54°33' E 018°31'0 0.3
2016-Apr-28 18:33N 54°33' E 018°30'7 7.2
2016-Apr-28 17:33N 54°32' E 018°43'1312.9
2016-Apr-28 16:33N 54°44' E 018°52'1717.4
2016-Apr-28 15:33N 54°57' E 018°32'1817.3
2016-Apr-28 14:33N 55°07' E 018°07'1 0.1
2016-Apr-27 23:15N 55°06' E 018°09'1115.4
2016-Apr-27 22:33N 55°01' E 018°24'1515.3
2016-Apr-27 21:33N 54°52' E 018°47'1313.4
2016-Apr-27 20:33N 54°41' E 018°60'1413.9
2016-Apr-27 19:33N 54°32' E 018°42'7 6.9
2016-Apr-27 18:31N 54°33' E 018°30'0 0.0
2016-Apr-27 17:32N 54°33' E 018°30'8 8.4
2016-Apr-27 16:33N 54°32' E 018°44'1413.8
2016-Apr-27 15:33N 54°46' E 018°49'1817.8
2016-Apr-27 14:33N 54°59' E 018°29'1817.7
2016-Apr-27 13:33N 55°08' E 018°02'10 0.6
2016-Apr-26 22:34N 55°04' E 018°17'1716.7
2016-Apr-26 21:34N 54°53' E 018°39'1716.6
2016-Apr-26 20:33N 54°40' E 018°57'1413.8
2016-Apr-26 19:33N 54°32' E 018°39'5 4.7
2016-Apr-26 18:32N 54°33' E 018°30'0 0.0
2016-Apr-26 17:32N 54°33' E 018°30'7 7.4
2016-Apr-26 16:34N 54°32' E 018°43'1313.0
2016-Apr-26 15:34N 54°44' E 018°52'1717.0
2016-Apr-26 14:34N 54°57' E 018°33'1717.0
2016-Apr-26 13:33N 55°07' E 018°09'1717.0
2016-Apr-26 12:33N 55°16' E 017°43'17 1.1
2016-Apr-25 21:14N 55°06' E 018°08'913.0
2016-Apr-25 20:33N 55°02' E 018°21'1312.6
2016-Apr-25 19:34N 54°54' E 018°38'1514.9
2016-Apr-25 18:34N 54°42' E 018°55'1212.2
2016-Apr-25 17:34N 54°32' E 018°45'9 8.7
2016-Apr-25 16:33N 54°33' E 018°30'0 0.0
2016-Apr-25 15:30N 54°33' E 018°30'0 0.0
2016-Apr-25 14:33N 54°33' E 018°30'0 0.0
2016-Apr-25 13:33N 54°33' E 018°30'0 0.0
2016-Apr-25 12:33N 54°33' E 018°30'0 0.0
2016-Apr-25 11:33N 54°33' E 018°30'0 0.0
2016-Apr-25 10:33N 54°33' E 018°30'0 0.0
2016-Apr-25 09:33N 54°33' E 018°30'0 0.0
2016-Apr-25 08:33N 54°33' E 018°30'0 0.0
2016-Apr-25 07:33N 54°33' E 018°30'2 2.1
2016-Apr-25 06:34N 54°32' E 018°34'1312.6
2016-Apr-25 05:33N 54°37' E 018°54'1313.2
2016-Apr-25 04:33N 54°49' E 018°45'1514.8
2016-Apr-25 03:33N 54°60' E 018°27'1514.8
2016-Apr-25 02:33N 55°08' E 018°05'3 0.2
2016-Apr-24 11:06N 55°07' E 018°10'917.3
2016-Apr-24 10:34N 55°01' E 018°23'1717.3
2016-Apr-24 09:34N 54°49' E 018°45'1514.9
2016-Apr-24 08:34N 54°35' E 018°53'1312.9
2016-Apr-24 07:34N 54°32' E 018°31'1 0.7
2016-Apr-24 06:33N 54°33' E 018°30'3 2.7
2016-Apr-24 05:33N 54°32' E 018°35'1514.8
2016-Apr-24 04:33N 54°42' E 018°55'2019.8
2016-Apr-24 03:33N 54°56' E 018°30'2020.2
2016-Apr-24 02:33N 55°08' E 018°02'41 3.1
2016-Apr-23 13:16N 55°32' E 017°03'1316.4
2016-Apr-23 12:29N 55°24' E 017°22'  
Track history (hours):
 
Tides and Currents Weather Stations Pressure Air Temp Water Temp Dewpoint Dewpoint Depression Visibility Wind Speed Wind Dir Waves Ship Positions

Stena Germanica

Last reported at 2016-May-03 11:33 UTC. Time now 2016-May-03 12:30 UTC.
Position N 55°29' E 017°08'.

Length 176 m; draft 6.7 m.

Type: Ship (hazmat cat A). MMSI: 265292000.

Date/timePositionNaut miles runAvg speedWind from/ knotsBaromVisibWave heightAir tempDewpointWater temp
2016-May-03 11:33N 55°29' E 017°08'3416.7
2016-May-03 09:31N 55°48' E 016°18'3015.2
2016-May-03 07:33N 56°05' E 015°34'3 0.9
2016-May-03 04:14N 56°03' E 015°37'1414.4
2016-May-03 03:16N 55°55' E 015°58'1014.7
2016-May-03 02:33N 55°49' E 016°14'1614.4
2016-May-03 01:28N 55°40' E 016°37'1314.3
2016-May-03 00:33N 55°33' E 016°56'1514.4
2016-May-02 23:31N 55°25' E 017°18'1514.9
2016-May-02 22:33N 55°17' E 017°39'1515.0
2016-May-02 21:33N 55°09' E 018°01'1515.1
2016-May-02 20:33N 55°01' E 018°23'1514.9
2016-May-02 19:33N 54°51' E 018°42'1414.4
2016-May-02 18:33N 54°39' E 018°57'1312.9
2016-May-02 17:33N 54°32' E 018°38'5 4.5
2016-May-02 16:31N 54°33' E 018°30'0 0.0
2016-May-02 15:31N 54°33' E 018°30'0 0.0
2016-May-02 14:31N 54°33' E 018°30'0 0.0
2016-May-02 13:31N 54°33' E 018°30'0 0.0
2016-May-02 12:31N 54°33' E 018°30'0 0.0
2016-May-02 11:31N 54°33' E 018°30'0 0.0
2016-May-02 10:31N 54°33' E 018°30'0 0.0
2016-May-02 09:31N 54°33' E 018°30'0 0.0
2016-May-02 08:31N 54°33' E 018°30'0 0.0
2016-May-02 07:31N 54°33' E 018°30'2 2.5
2016-May-02 06:33N 54°32' E 018°34'1211.6
2016-May-02 05:33N 54°36' E 018°53'1212.5
2016-May-02 04:33N 54°48' E 018°47'1414.4
2016-May-02 03:33N 54°58' E 018°30'1514.7
2016-May-02 02:33N 55°07' E 018°09'1514.7
2016-May-02 01:33N 55°14' E 017°47'1514.6
2016-May-02 00:33N 55°22' E 017°25'1614.6
2016-May-01 23:28N 55°31' E 017°02'3015.0
2016-May-01 21:28N 55°47' E 016°17'1415.1
2016-May-01 20:32N 55°55' E 015°56'1515.2
2016-May-01 19:33N 56°04' E 015°34'2 0.9
2016-May-01 17:27N 56°06' E 015°34'1514.7
2016-May-01 16:25N 55°56' E 015°56'1415.8
2016-May-01 15:32N 55°49' E 016°16'6516.2
2016-May-01 11:30N 55°12' E 017°52'1616.4
2016-May-01 10:33N 55°04' E 018°15'1616.3
2016-May-01 09:33N 54°54' E 018°38'1616.4
2016-May-01 08:33N 54°42' E 018°56'1313.3
2016-May-01 07:34N 54°32' E 018°41'6 6.5
2016-May-01 06:33N 54°33' E 018°30'0 0.0
2016-May-01 05:33N 54°33' E 018°30'7 7.0
2016-May-01 04:33N 54°32' E 018°42'1312.9
2016-May-01 03:33N 54°44' E 018°52'1717.2
2016-May-01 02:34N 54°57' E 018°33'1717.2
2016-May-01 01:34N 55°07' E 018°08'1717.3
2016-May-01 00:33N 55°16' E 017°42'1717.3
2016-Apr-30 23:33N 55°26' E 017°17'1717.3
2016-Apr-30 22:33N 55°35' E 016°51'1717.3
2016-Apr-30 21:33N 55°45' E 016°26'1717.3
2016-Apr-30 20:33N 55°54' E 016°00'1716.7
2016-Apr-30 19:33N 56°03' E 015°35'6 2.4
2016-Apr-30 17:14N 56°09' E 015°37'812.2
2016-Apr-30 16:34N 56°01' E 015°41'1616.0
2016-Apr-30 15:33N 55°53' E 016°06'1716.8
2016-Apr-30 14:33N 55°43' E 016°31'3316.7
2016-Apr-30 12:33N 55°25' E 017°20'1717.2
2016-Apr-30 11:33N 55°15' E 017°44'1717.0
2016-Apr-30 10:33N 55°06' E 018°09'1717.0
2016-Apr-30 09:33N 54°57' E 018°35'1616.3
2016-Apr-30 08:34N 54°44' E 018°53'1313.3
2016-Apr-30 07:34N 54°32' E 018°46'9 8.6
2016-Apr-30 06:31N 54°33' E 018°30'0 0.0
2016-Apr-30 05:34N 54°33' E 018°30'6 6.4
2016-Apr-30 04:34N 54°32' E 018°41'1212.2
2016-Apr-30 03:33N 54°41' E 018°55'1413.8
2016-Apr-30 02:33N 54°52' E 018°40'1312.7
2016-Apr-30 01:33N 55°00' E 018°23'1312.7
2016-Apr-30 00:33N 55°07' E 018°05'1312.9
2016-Apr-29 23:33N 55°14' E 017°46'2914.3
2016-Apr-29 21:32N 55°30' E 017°03'1815.2
2016-Apr-29 20:22N 55°40' E 016°37'1315.1
2016-Apr-29 19:30N 55°47' E 016°18'1815.2
2016-Apr-29 18:21N 55°57' E 015°52'1215.0
2016-Apr-29 17:33N 56°04' E 015°34'104 5.8
2016-Apr-28 23:31N 55°07' E 018°08'1515.6
2016-Apr-28 22:33N 54°58' E 018°30'1615.8
2016-Apr-28 21:33N 54°47' E 018°49'1413.7
2016-Apr-28 20:33N 54°33' E 018°51'1211.8
2016-Apr-28 19:33N 54°33' E 018°31'0 0.3
2016-Apr-28 18:33N 54°33' E 018°30'7 7.2
2016-Apr-28 17:33N 54°32' E 018°43'1312.9
2016-Apr-28 16:33N 54°44' E 018°52'1717.4
2016-Apr-28 15:33N 54°57' E 018°32'1817.3
2016-Apr-28 14:33N 55°07' E 018°07'1 0.1
2016-Apr-27 23:15N 55°06' E 018°09'1115.4
2016-Apr-27 22:33N 55°01' E 018°24'1515.3
2016-Apr-27 21:33N 54°52' E 018°47'1313.4
2016-Apr-27 20:33N 54°41' E 018°60'1413.9
2016-Apr-27 19:33N 54°32' E 018°42'7 6.9
2016-Apr-27 18:31N 54°33' E 018°30'0 0.0
2016-Apr-27 17:32N 54°33' E 018°30'8 8.4
2016-Apr-27 16:33N 54°32' E 018°44'1413.8
2016-Apr-27 15:33N 54°46' E 018°49'1817.8
2016-Apr-27 14:33N 54°59' E 018°29'1817.7
2016-Apr-27 13:33N 55°08' E 018°02'10 0.6
2016-Apr-26 22:34N 55°04' E 018°17'1716.7
2016-Apr-26 21:34N 54°53' E 018°39'1716.6
2016-Apr-26 20:33N 54°40' E 018°57'1413.8
2016-Apr-26 19:33N 54°32' E 018°39'5 4.7
2016-Apr-26 18:32N 54°33' E 018°30'0 0.0
2016-Apr-26 17:32N 54°33' E 018°30'7 7.4
2016-Apr-26 16:34N 54°32' E 018°43'1313.0
2016-Apr-26 15:34N 54°44' E 018°52'1717.0
2016-Apr-26 14:34N 54°57' E 018°33'1717.0
2016-Apr-26 13:33N 55°07' E 018°09'1717.0
2016-Apr-26 12:33N 55°16' E 017°43'17 1.1
2016-Apr-25 21:14N 55°06' E 018°08'913.0
2016-Apr-25 20:33N 55°02' E 018°21'1312.6
2016-Apr-25 19:34N 54°54' E 018°38'1514.9
2016-Apr-25 18:34N 54°42' E 018°55'1212.2
2016-Apr-25 17:34N 54°32' E 018°45'9 8.7
2016-Apr-25 16:33N 54°33' E 018°30'0 0.0
2016-Apr-25 15:30N 54°33' E 018°30'0 0.0
2016-Apr-25 14:33N 54°33' E 018°30'0 0.0
2016-Apr-25 13:33N 54°33' E 018°30'0 0.0
2016-Apr-25 12:33N 54°33' E 018°30'0 0.0
2016-Apr-25 11:33N 54°33' E 018°30'0 0.0
2016-Apr-25 10:33N 54°33' E 018°30'0 0.0
2016-Apr-25 09:33N 54°33' E 018°30'0 0.0
2016-Apr-25 08:33N 54°33' E 018°30'0 0.0
2016-Apr-25 07:33N 54°33' E 018°30'2 2.1
2016-Apr-25 06:34N 54°32' E 018°34'1312.6
2016-Apr-25 05:33N 54°37' E 018°54'1313.2
2016-Apr-25 04:33N 54°49' E 018°45'1514.8
2016-Apr-25 03:33N 54°60' E 018°27'1514.8
2016-Apr-25 02:33N 55°08' E 018°05'3 0.2
2016-Apr-24 11:06N 55°07' E 018°10'917.3
2016-Apr-24 10:34N 55°01' E 018°23'1717.3
2016-Apr-24 09:34N 54°49' E 018°45'1514.9
2016-Apr-24 08:34N 54°35' E 018°53'1312.9
2016-Apr-24 07:34N 54°32' E 018°31'1 0.7
2016-Apr-24 06:33N 54°33' E 018°30'3 2.7
2016-Apr-24 05:33N 54°32' E 018°35'1514.8
2016-Apr-24 04:33N 54°42' E 018°55'2019.8
2016-Apr-24 03:33N 54°56' E 018°30'2020.2
2016-Apr-24 02:33N 55°08' E 018°02'41 3.1
2016-Apr-23 13:16N 55°32' E 017°03'1316.4
2016-Apr-23 12:29N 55°24' E 017°22'  

Dump ship's entire track history